Dallas, Texas
Current Conditions -  °F | °C
As of 7:53 AM on Saturday 25 Oct 2014 (Local Time) from KDAL Reporting Station
Clear Clear  
Wind Chill: 18°   Ceiling: Unl
Heat Index: 18°   Visibility: 10mi
Dew Point: 14°   Wind: 9mph
Humidity: 75%   Direction: 150°SSE
Pressure: 30.12"   Gusts: NA
Location:  32.78°N, 96.79°W
Report Text: KDAL 251253Z 15008KT 10SM CLR 18/14 A3012 RMK AO2 SLP195 T01830139
Loading
Personal Weather Stations






























Interactive Weather Map New forecast layout! Learn more

10-Day Weather Forecast

Advertisements
Track Severe Weather on mobile